sensor_id;sensor_type;location;lat;lon;timestamp;P1;durP1;ratioP1;P2;durP2;ratioP2
1106;SDS011;540;49.448;8.612;2024-03-08T00:00:14;23.65;;;16.40;;
1106;SDS011;540;49.448;8.612;2024-03-08T00:02:46;24.23;;;16.23;;
1106;SDS011;540;49.448;8.612;2024-03-08T00:05:17;21.48;;;15.50;;
1106;SDS011;540;49.448;8.612;2024-03-08T00:07:46;23.60;;;16.98;;
1106;SDS011;540;49.448;8.612;2024-03-08T00:10:13;28.77;;;17.15;;
1106;SDS011;540;49.448;8.612;2024-03-08T00:12:43;26.38;;;17.75;;
1106;SDS011;540;49.448;8.612;2024-03-08T00:15:14;23.50;;;15.93;;
1106;SDS011;540;49.448;8.612;2024-03-08T00:17:45;28.38;;;17.10;;
1106;SDS011;540;49.448;8.612;2024-03-08T00:20:14;22.27;;;15.73;;
1106;SDS011;540;49.448;8.612;2024-03-08T00:22:44;23.73;;;16.27;;
1106;SDS011;540;49.448;8.612;2024-03-08T00:25:12;26.08;;;16.52;;
1106;SDS011;540;49.448;8.612;2024-03-08T00:27:40;23.55;;;16.02;;
1106;SDS011;540;49.448;8.612;2024-03-08T00:30:09;27.17;;;16.50;;
1106;SDS011;540;49.448;8.612;2024-03-08T00:32:40;27.17;;;17.67;;
1106;SDS011;540;49.448;8.612;2024-03-08T00:35:08;23.67;;;16.13;;
1106;SDS011;540;49.448;8.612;2024-03-08T00:37:37;24.25;;;17.25;;
1106;SDS011;540;49.448;8.612;2024-03-08T00:40:05;27.50;;;16.63;;
1106;SDS011;540;49.448;8.612;2024-03-08T00:42:35;25.92;;;15.90;;
1106;SDS011;540;49.448;8.612;2024-03-08T00:45:04;25.73;;;16.92;;
1106;SDS011;540;49.448;8.612;2024-03-08T00:47:33;24.00;;;16.08;;
1106;SDS011;540;49.448;8.612;2024-03-08T00:50:02;24.90;;;16.00;;
1106;SDS011;540;49.448;8.612;2024-03-08T00:52:31;28.15;;;16.65;;
1106;SDS011;540;49.448;8.612;2024-03-08T00:55:01;22.98;;;15.85;;
1106;SDS011;540;49.448;8.612;2024-03-08T00:57:29;23.25;;;17.23;;
1106;SDS011;540;49.448;8.612;2024-03-08T00:59:57;25.08;;;17.05;;
1106;SDS011;540;49.448;8.612;2024-03-08T01:02:25;24.73;;;16.83;;
1106;SDS011;540;49.448;8.612;2024-03-08T01:04:53;27.85;;;16.10;;
1106;SDS011;540;49.448;8.612;2024-03-08T01:07:22;24.85;;;16.58;;
1106;SDS011;540;49.448;8.612;2024-03-08T01:09:50;23.83;;;16.67;;
1106;SDS011;540;49.448;8.612;2024-03-08T01:12:17;22.05;;;15.93;;
1106;SDS011;540;49.448;8.612;2024-03-08T01:14:46;23.60;;;16.20;;
1106;SDS011;540;49.448;8.612;2024-03-08T01:17:14;23.67;;;16.75;;
1106;SDS011;540;49.448;8.612;2024-03-08T01:19:41;23.73;;;15.70;;
1106;SDS011;540;49.448;8.612;2024-03-08T01:22:11;26.00;;;16.25;;
1106;SDS011;540;49.448;8.612;2024-03-08T01:24:40;23.65;;;15.68;;
1106;SDS011;540;49.448;8.612;2024-03-08T01:27:09;26.00;;;17.15;;
1106;SDS011;540;49.448;8.612;2024-03-08T01:29:38;24.60;;;16.48;;
1106;SDS011;540;49.448;8.612;2024-03-08T01:32:06;27.13;;;17.52;;
1106;SDS011;540;49.448;8.612;2024-03-08T01:34:34;26.58;;;16.52;;
1106;SDS011;540;49.448;8.612;2024-03-08T01:37:02;24.10;;;16.27;;
1106;SDS011;540;49.448;8.612;2024-03-08T01:39:31;24.52;;;17.17;;
1106;SDS011;540;49.448;8.612;2024-03-08T01:42:00;27.52;;;17.10;;
1106;SDS011;540;49.448;8.612;2024-03-08T01:44:28;22.30;;;16.20;;
1106;SDS011;540;49.448;8.612;2024-03-08T01:46:56;23.90;;;16.38;;
1106;SDS011;540;49.448;8.612;2024-03-08T01:49:24;25.98;;;17.50;;
1106;SDS011;540;49.448;8.612;2024-03-08T01:51:54;23.27;;;15.43;;
1106;SDS011;540;49.448;8.612;2024-03-08T01:54:23;23.00;;;15.95;;
1106;SDS011;540;49.448;8.612;2024-03-08T01:56:51;21.60;;;14.82;;
1106;SDS011;540;49.448;8.612;2024-03-08T01:59:21;23.00;;;15.13;;
1106;SDS011;540;49.448;8.612;2024-03-08T02:01:49;21.88;;;13.25;;
1106;SDS011;540;49.448;8.612;2024-03-08T02:04:17;22.20;;;14.68;;
1106;SDS011;540;49.448;8.612;2024-03-08T02:06:47;21.67;;;15.05;;
1106;SDS011;540;49.448;8.612;2024-03-08T02:09:15;19.40;;;13.48;;
1106;SDS011;540;49.448;8.612;2024-03-08T02:11:43;22.13;;;15.25;;
1106;SDS011;540;49.448;8.612;2024-03-08T02:14:12;22.15;;;14.55;;
1106;SDS011;540;49.448;8.612;2024-03-08T02:16:41;23.45;;;15.27;;
1106;SDS011;540;49.448;8.612;2024-03-08T02:19:09;23.50;;;14.73;;
1106;SDS011;540;49.448;8.612;2024-03-08T02:21:38;19.73;;;13.13;;
1106;SDS011;540;49.448;8.612;2024-03-08T02:24:06;19.92;;;12.13;;
1106;SDS011;540;49.448;8.612;2024-03-08T02:26:34;20.42;;;14.90;;
1106;SDS011;540;49.448;8.612;2024-03-08T02:29:03;22.33;;;16.30;;
1106;SDS011;540;49.448;8.612;2024-03-08T02:31:31;23.40;;;14.93;;
1106;SDS011;540;49.448;8.612;2024-03-08T02:33:59;20.38;;;13.18;;
1106;SDS011;540;49.448;8.612;2024-03-08T02:36:27;22.42;;;14.18;;
1106;SDS011;540;49.448;8.612;2024-03-08T02:38:56;25.55;;;15.30;;
1106;SDS011;540;49.448;8.612;2024-03-08T02:41:24;21.33;;;14.15;;
1106;SDS011;540;49.448;8.612;2024-03-08T02:43:52;21.85;;;14.70;;
1106;SDS011;540;49.448;8.612;2024-03-08T02:46:21;23.65;;;13.40;;
1106;SDS011;540;49.448;8.612;2024-03-08T02:48:49;23.02;;;16.88;;
1106;SDS011;540;49.448;8.612;2024-03-08T02:51:17;21.50;;;13.75;;
1106;SDS011;540;49.448;8.612;2024-03-08T02:53:46;22.33;;;15.65;;
1106;SDS011;540;49.448;8.612;2024-03-08T02:56:16;24.98;;;14.98;;
1106;SDS011;540;49.448;8.612;2024-03-08T02:58:45;25.02;;;14.85;;
1106;SDS011;540;49.448;8.612;2024-03-08T03:01:14;20.60;;;14.20;;
1106;SDS011;540;49.448;8.612;2024-03-08T03:03:42;29.30;;;17.77;;
1106;SDS011;540;49.448;8.612;2024-03-08T03:06:10;23.02;;;12.63;;
1106;SDS011;540;49.448;8.612;2024-03-08T03:08:38;24.08;;;15.80;;
1106;SDS011;540;49.448;8.612;2024-03-08T03:11:09;23.30;;;14.90;;
1106;SDS011;540;49.448;8.612;2024-03-08T03:13:38;22.58;;;14.88;;
1106;SDS011;540;49.448;8.612;2024-03-08T03:16:06;24.05;;;16.35;;
1106;SDS011;540;49.448;8.612;2024-03-08T03:18:34;24.70;;;15.00;;
1106;SDS011;540;49.448;8.612;2024-03-08T03:21:02;25.02;;;16.88;;
1106;SDS011;540;49.448;8.612;2024-03-08T03:23:33;21.98;;;13.93;;
1106;SDS011;540;49.448;8.612;2024-03-08T03:26:03;23.23;;;16.23;;
1106;SDS011;540;49.448;8.612;2024-03-08T03:28:33;26.15;;;14.65;;
1106;SDS011;540;49.448;8.612;2024-03-08T03:31:02;24.15;;;15.20;;
1106;SDS011;540;49.448;8.612;2024-03-08T03:33:34;24.63;;;15.23;;
1106;SDS011;540;49.448;8.612;2024-03-08T03:36:03;23.40;;;14.80;;
1106;SDS011;540;49.448;8.612;2024-03-08T03:38:32;25.60;;;16.45;;
1106;SDS011;540;49.448;8.612;2024-03-08T03:41:01;27.10;;;16.48;;
1106;SDS011;540;49.448;8.612;2024-03-08T03:43:36;26.85;;;18.05;;
1106;SDS011;540;49.448;8.612;2024-03-08T03:46:06;25.58;;;15.00;;
1106;SDS011;540;49.448;8.612;2024-03-08T03:48:37;27.58;;;17.65;;
1106;SDS011;540;49.448;8.612;2024-03-08T03:51:05;26.52;;;14.75;;
1106;SDS011;540;49.448;8.612;2024-03-08T03:53:33;27.10;;;15.98;;
1106;SDS011;540;49.448;8.612;2024-03-08T03:56:01;25.83;;;16.27;;
1106;SDS011;540;49.448;8.612;2024-03-08T03:58:33;23.63;;;13.75;;
1106;SDS011;540;49.448;8.612;2024-03-08T04:01:01;25.27;;;17.00;;
1106;SDS011;540;49.448;8.612;2024-03-08T04:03:32;25.63;;;15.55;;
1106;SDS011;540;49.448;8.612;2024-03-08T04:06:00;24.05;;;14.48;;
1106;SDS011;540;49.448;8.612;2024-03-08T04:08:29;31.63;;;15.45;;
1106;SDS011;540;49.448;8.612;2024-03-08T04:10:57;26.02;;;15.40;;
1106;SDS011;540;49.448;8.612;2024-03-08T04:13:25;26.70;;;16.98;;
1106;SDS011;540;49.448;8.612;2024-03-08T04:15:53;23.27;;;13.55;;
1106;SDS011;540;49.448;8.612;2024-03-08T04:18:21;24.55;;;16.08;;
1106;SDS011;540;49.448;8.612;2024-03-08T04:20:50;25.02;;;14.38;;
1106;SDS011;540;49.448;8.612;2024-03-08T04:23:19;19.88;;;14.23;;
1106;SDS011;540;49.448;8.612;2024-03-08T04:25:46;23.38;;;16.60;;
1106;SDS011;540;49.448;8.612;2024-03-08T04:28:14;23.75;;;17.23;;
1106;SDS011;540;49.448;8.612;2024-03-08T04:30:45;27.98;;;13.70;;
1106;SDS011;540;49.448;8.612;2024-03-08T04:33:12;24.13;;;16.52;;
1106;SDS011;540;49.448;8.612;2024-03-08T04:35:41;26.73;;;15.02;;
1106;SDS011;540;49.448;8.612;2024-03-08T04:38:13;25.10;;;17.38;;
1106;SDS011;540;49.448;8.612;2024-03-08T04:40:41;21.27;;;13.32;;
1106;SDS011;540;49.448;8.612;2024-03-08T04:43:09;22.98;;;14.65;;
1106;SDS011;540;49.448;8.612;2024-03-08T04:45:37;26.20;;;16.25;;
1106;SDS011;540;49.448;8.612;2024-03-08T04:48:05;28.40;;;16.15;;
1106;SDS011;540;49.448;8.612;2024-03-08T04:50:34;23.83;;;16.38;;
1106;SDS011;540;49.448;8.612;2024-03-08T04:53:02;26.85;;;15.55;;
1106;SDS011;540;49.448;8.612;2024-03-08T04:55:32;23.10;;;12.80;;
1106;SDS011;540;49.448;8.612;2024-03-08T04:58:00;26.02;;;15.80;;
1106;SDS011;540;49.448;8.612;2024-03-08T05:00:30;24.48;;;14.02;;
1106;SDS011;540;49.448;8.612;2024-03-08T05:02:58;24.40;;;16.15;;
1106;SDS011;540;49.448;8.612;2024-03-08T05:05:26;26.10;;;14.50;;
1106;SDS011;540;49.448;8.612;2024-03-08T05:07:55;23.77;;;14.43;;
1106;SDS011;540;49.448;8.612;2024-03-08T05:10:23;25.15;;;16.40;;
1106;SDS011;540;49.448;8.612;2024-03-08T05:12:52;29.10;;;14.98;;
1106;SDS011;540;49.448;8.612;2024-03-08T05:15:22;24.58;;;14.93;;
1106;SDS011;540;49.448;8.612;2024-03-08T05:17:50;28.45;;;18.83;;
1106;SDS011;540;49.448;8.612;2024-03-08T05:20:18;25.20;;;14.73;;
1106;SDS011;540;49.448;8.612;2024-03-08T05:22:48;25.90;;;14.30;;
1106;SDS011;540;49.448;8.612;2024-03-08T05:25:17;26.65;;;16.45;;
1106;SDS011;540;49.448;8.612;2024-03-08T05:27:45;26.15;;;17.10;;
1106;SDS011;540;49.448;8.612;2024-03-08T05:30:15;26.77;;;15.35;;
1106;SDS011;540;49.448;8.612;2024-03-08T05:32:42;27.10;;;16.65;;
1106;SDS011;540;49.448;8.612;2024-03-08T05:35:12;28.33;;;16.55;;
1106;SDS011;540;49.448;8.612;2024-03-08T05:37:42;22.77;;;13.52;;
1106;SDS011;540;49.448;8.612;2024-03-08T05:40:10;28.92;;;18.13;;
1106;SDS011;540;49.448;8.612;2024-03-08T05:42:43;24.20;;;14.40;;
1106;SDS011;540;49.448;8.612;2024-03-08T05:45:11;25.23;;;15.40;;
1106;SDS011;540;49.448;8.612;2024-03-08T05:47:42;27.58;;;17.50;;
1106;SDS011;540;49.448;8.612;2024-03-08T05:50:10;26.88;;;17.35;;
1106;SDS011;540;49.448;8.612;2024-03-08T05:52:37;24.00;;;14.65;;
1106;SDS011;540;49.448;8.612;2024-03-08T05:55:06;30.33;;;14.80;;
1106;SDS011;540;49.448;8.612;2024-03-08T05:57:35;25.27;;;17.15;;
1106;SDS011;540;49.448;8.612;2024-03-08T06:00:06;28.95;;;16.85;;
1106;SDS011;540;49.448;8.612;2024-03-08T06:02:34;29.92;;;15.20;;
1106;SDS011;540;49.448;8.612;2024-03-08T06:05:10;28.52;;;19.13;;
1106;SDS011;540;49.448;8.612;2024-03-08T06:07:38;33.17;;;15.05;;
1106;SDS011;540;49.448;8.612;2024-03-08T06:10:08;26.50;;;16.00;;
1106;SDS011;540;49.448;8.612;2024-03-08T06:12:39;26.20;;;14.43;;
1106;SDS011;540;49.448;8.612;2024-03-08T06:15:08;28.20;;;14.20;;
1106;SDS011;540;49.448;8.612;2024-03-08T06:17:40;28.35;;;15.13;;
1106;SDS011;540;49.448;8.612;2024-03-08T06:20:09;28.73;;;15.63;;
1106;SDS011;540;49.448;8.612;2024-03-08T06:22:40;28.98;;;16.02;;
1106;SDS011;540;49.448;8.612;2024-03-08T06:25:08;25.45;;;14.15;;
1106;SDS011;540;49.448;8.612;2024-03-08T06:27:37;26.88;;;14.55;;
1106;SDS011;540;49.448;8.612;2024-03-08T06:30:05;30.65;;;15.88;;
1106;SDS011;540;49.448;8.612;2024-03-08T06:32:36;28.65;;;16.95;;
1106;SDS011;540;49.448;8.612;2024-03-08T06:35:04;28.05;;;15.00;;
1106;SDS011;540;49.448;8.612;2024-03-08T06:37:34;27.73;;;16.60;;
1106;SDS011;540;49.448;8.612;2024-03-08T06:40:02;24.45;;;15.52;;
1106;SDS011;540;49.448;8.612;2024-03-08T06:42:31;26.88;;;15.32;;
1106;SDS011;540;49.448;8.612;2024-03-08T06:45:01;29.80;;;16.40;;
1106;SDS011;540;49.448;8.612;2024-03-08T06:47:31;29.02;;;16.98;;
1106;SDS011;540;49.448;8.612;2024-03-08T06:50:00;26.15;;;17.02;;
1106;SDS011;540;49.448;8.612;2024-03-08T06:52:27;31.25;;;18.10;;
1106;SDS011;540;49.448;8.612;2024-03-08T06:54:57;27.77;;;14.77;;
1106;SDS011;540;49.448;8.612;2024-03-08T06:57:28;29.67;;;17.77;;
1106;SDS011;540;49.448;8.612;2024-03-08T06:59:56;29.98;;;17.42;;
1106;SDS011;540;49.448;8.612;2024-03-08T07:02:24;28.67;;;18.27;;
1106;SDS011;540;49.448;8.612;2024-03-08T07:04:52;34.42;;;19.23;;
1106;SDS011;540;49.448;8.612;2024-03-08T07:07:20;27.02;;;17.10;;
1106;SDS011;540;49.448;8.612;2024-03-08T07:09:48;27.40;;;15.77;;
1106;SDS011;540;49.448;8.612;2024-03-08T07:12:17;28.42;;;18.92;;
1106;SDS011;540;49.448;8.612;2024-03-08T07:14:47;27.60;;;17.55;;
1106;SDS011;540;49.448;8.612;2024-03-08T07:17:14;26.70;;;19.17;;
1106;SDS011;540;49.448;8.612;2024-03-08T07:19:42;28.17;;;17.70;;
1106;SDS011;540;49.448;8.612;2024-03-08T07:22:11;29.08;;;17.48;;
1106;SDS011;540;49.448;8.612;2024-03-08T07:24:39;27.73;;;19.45;;
1106;SDS011;540;49.448;8.612;2024-03-08T07:27:23;28.98;;;18.58;;
1106;SDS011;540;49.448;8.612;2024-03-08T07:29:51;26.58;;;18.45;;
1106;SDS011;540;49.448;8.612;2024-03-08T07:32:34;28.27;;;18.08;;
1106;SDS011;540;49.448;8.612;2024-03-08T07:35:02;27.98;;;18.25;;
1106;SDS011;540;49.448;8.612;2024-03-08T07:37:30;29.17;;;19.38;;
1106;SDS011;540;49.448;8.612;2024-03-08T07:39:58;29.67;;;19.23;;
1106;SDS011;540;49.448;8.612;2024-03-08T07:42:28;24.98;;;17.70;;
1106;SDS011;540;49.448;8.612;2024-03-08T07:44:55;27.83;;;18.25;;
1106;SDS011;540;49.448;8.612;2024-03-08T07:47:23;27.30;;;18.17;;
1106;SDS011;540;49.448;8.612;2024-03-08T07:49:52;24.33;;;18.27;;
1106;SDS011;540;49.448;8.612;2024-03-08T07:52:20;23.25;;;16.55;;
1106;SDS011;540;49.448;8.612;2024-03-08T07:54:48;23.08;;;16.85;;
1106;SDS011;540;49.448;8.612;2024-03-08T07:57:16;22.35;;;15.73;;
1106;SDS011;540;49.448;8.612;2024-03-08T07:59:45;22.02;;;15.73;;
1106;SDS011;540;49.448;8.612;2024-03-08T08:02:13;21.80;;;14.80;;
1106;SDS011;540;49.448;8.612;2024-03-08T08:04:41;23.08;;;15.35;;
1106;SDS011;540;49.448;8.612;2024-03-08T08:07:11;21.58;;;15.00;;
1106;SDS011;540;49.448;8.612;2024-03-08T08:09:38;23.42;;;16.33;;
1106;SDS011;540;49.448;8.612;2024-03-08T08:12:07;21.30;;;15.95;;
1106;SDS011;540;49.448;8.612;2024-03-08T08:14:38;20.35;;;15.27;;
1106;SDS011;540;49.448;8.612;2024-03-08T08:17:08;19.45;;;14.93;;
1106;SDS011;540;49.448;8.612;2024-03-08T08:19:37;20.23;;;14.98;;
1106;SDS011;540;49.448;8.612;2024-03-08T08:22:05;20.48;;;14.57;;
1106;SDS011;540;49.448;8.612;2024-03-08T08:24:35;18.65;;;13.93;;
1106;SDS011;540;49.448;8.612;2024-03-08T08:27:03;24.88;;;15.85;;
1106;SDS011;540;49.448;8.612;2024-03-08T08:29:31;20.17;;;14.93;;
1106;SDS011;540;49.448;8.612;2024-03-08T08:31:59;17.75;;;14.10;;
1106;SDS011;540;49.448;8.612;2024-03-08T08:34:30;17.95;;;14.40;;
1106;SDS011;540;49.448;8.612;2024-03-08T08:36:58;18.85;;;14.13;;
1106;SDS011;540;49.448;8.612;2024-03-08T08:39:25;19.30;;;14.75;;
1106;SDS011;540;49.448;8.612;2024-03-08T08:41:54;20.63;;;14.48;;
1106;SDS011;540;49.448;8.612;2024-03-08T08:44:21;19.98;;;15.10;;
1106;SDS011;540;49.448;8.612;2024-03-08T08:46:49;19.08;;;14.38;;
1106;SDS011;540;49.448;8.612;2024-03-08T08:49:22;19.13;;;14.68;;
1106;SDS011;540;49.448;8.612;2024-03-08T08:51:52;20.15;;;15.18;;
1106;SDS011;540;49.448;8.612;2024-03-08T08:54:24;17.92;;;13.60;;
1106;SDS011;540;49.448;8.612;2024-03-08T08:56:53;16.73;;;13.07;;
1106;SDS011;540;49.448;8.612;2024-03-08T08:59:21;17.95;;;13.63;;
1106;SDS011;540;49.448;8.612;2024-03-08T09:01:51;16.83;;;13.45;;
1106;SDS011;540;49.448;8.612;2024-03-08T09:04:21;17.23;;;12.57;;
1106;SDS011;540;49.448;8.612;2024-03-08T09:06:52;17.40;;;13.90;;
1106;SDS011;540;49.448;8.612;2024-03-08T09:09:21;18.98;;;14.13;;
1106;SDS011;540;49.448;8.612;2024-03-08T09:11:50;19.38;;;14.95;;
1106;SDS011;540;49.448;8.612;2024-03-08T09:14:21;19.27;;;13.43;;
1106;SDS011;540;49.448;8.612;2024-03-08T09:16:49;19.63;;;14.05;;
1106;SDS011;540;49.448;8.612;2024-03-08T09:19:18;18.38;;;13.88;;
1106;SDS011;540;49.448;8.612;2024-03-08T09:21:49;17.42;;;13.45;;
1106;SDS011;540;49.448;8.612;2024-03-08T09:24:20;18.42;;;14.23;;
1106;SDS011;540;49.448;8.612;2024-03-08T09:26:50;18.85;;;14.25;;
1106;SDS011;540;49.448;8.612;2024-03-08T09:29:18;20.17;;;14.73;;
1106;SDS011;540;49.448;8.612;2024-03-08T09:31:47;17.83;;;13.35;;
1106;SDS011;540;49.448;8.612;2024-03-08T09:34:16;19.30;;;13.82;;
1106;SDS011;540;49.448;8.612;2024-03-08T09:36:52;19.05;;;14.50;;
1106;SDS011;540;49.448;8.612;2024-03-08T09:39:20;18.15;;;13.52;;
1106;SDS011;540;49.448;8.612;2024-03-08T09:41:51;16.50;;;13.10;;
1106;SDS011;540;49.448;8.612;2024-03-08T09:44:21;17.10;;;13.48;;
1106;SDS011;540;49.448;8.612;2024-03-08T09:46:54;18.60;;;13.98;;
1106;SDS011;540;49.448;8.612;2024-03-08T09:49:24;16.70;;;12.85;;
1106;SDS011;540;49.448;8.612;2024-03-08T09:51:54;17.52;;;13.20;;
1106;SDS011;540;49.448;8.612;2024-03-08T09:54:23;18.80;;;14.25;;
1106;SDS011;540;49.448;8.612;2024-03-08T09:56:52;16.88;;;13.07;;
1106;SDS011;540;49.448;8.612;2024-03-08T09:59:20;17.20;;;13.15;;
1106;SDS011;540;49.448;8.612;2024-03-08T10:02:12;19.05;;;14.13;;
1106;SDS011;540;49.448;8.612;2024-03-08T10:04:42;16.00;;;12.40;;
1106;SDS011;540;49.448;8.612;2024-03-08T10:07:14;16.05;;;12.75;;
1106;SDS011;540;49.448;8.612;2024-03-08T10:09:42;17.40;;;12.85;;
1106;SDS011;540;49.448;8.612;2024-03-08T10:12:16;16.77;;;12.65;;
1106;SDS011;540;49.448;8.612;2024-03-08T10:14:45;16.60;;;12.75;;
1106;SDS011;540;49.448;8.612;2024-03-08T10:17:13;16.35;;;12.23;;
1106;SDS011;540;49.448;8.612;2024-03-08T10:19:49;15.30;;;12.32;;
1106;SDS011;540;49.448;8.612;2024-03-08T10:22:19;15.20;;;12.25;;
1106;SDS011;540;49.448;8.612;2024-03-08T10:24:47;17.25;;;12.85;;
1106;SDS011;540;49.448;8.612;2024-03-08T10:27:16;18.20;;;12.63;;
1106;SDS011;540;49.448;8.612;2024-03-08T10:29:46;15.13;;;12.68;;
1106;SDS011;540;49.448;8.612;2024-03-08T10:32:14;18.92;;;13.30;;
1106;SDS011;540;49.448;8.612;2024-03-08T10:34:42;18.25;;;13.63;;
1106;SDS011;540;49.448;8.612;2024-03-08T10:37:12;16.88;;;13.20;;
1106;SDS011;540;49.448;8.612;2024-03-08T10:39:47;18.88;;;14.50;;
1106;SDS011;540;49.448;8.612;2024-03-08T10:42:27;17.65;;;13.02;;
1106;SDS011;540;49.448;8.612;2024-03-08T10:44:58;19.33;;;15.07;;
1106;SDS011;540;49.448;8.612;2024-03-08T10:47:34;16.70;;;13.05;;
1106;SDS011;540;49.448;8.612;2024-03-08T10:50:10;20.60;;;14.25;;
1106;SDS011;540;49.448;8.612;2024-03-08T10:52:42;17.02;;;13.25;;
1106;SDS011;540;49.448;8.612;2024-03-08T10:55:12;17.92;;;13.35;;
1106;SDS011;540;49.448;8.612;2024-03-08T10:57:41;17.15;;;13.73;;
1106;SDS011;540;49.448;8.612;2024-03-08T11:00:10;17.58;;;13.50;;
1106;SDS011;540;49.448;8.612;2024-03-08T11:02:43;18.23;;;13.30;;
1106;SDS011;540;49.448;8.612;2024-03-08T11:05:11;19.05;;;13.77;;
1106;SDS011;540;49.448;8.612;2024-03-08T11:07:58;17.67;;;12.85;;
1106;SDS011;540;49.448;8.612;2024-03-08T11:10:27;19.17;;;14.02;;
1106;SDS011;540;49.448;8.612;2024-03-08T11:12:55;18.60;;;13.93;;
1106;SDS011;540;49.448;8.612;2024-03-08T11:15:24;22.48;;;14.90;;
1106;SDS011;540;49.448;8.612;2024-03-08T11:17:52;18.23;;;13.95;;
1106;SDS011;540;49.448;8.612;2024-03-08T11:20:23;19.83;;;15.15;;
1106;SDS011;540;49.448;8.612;2024-03-08T11:22:52;20.42;;;14.85;;
1106;SDS011;540;49.448;8.612;2024-03-08T11:25:32;25.98;;;15.18;;
1106;SDS011;540;49.448;8.612;2024-03-08T11:28:06;19.92;;;14.82;;
1106;SDS011;540;49.448;8.612;2024-03-08T11:30:46;18.55;;;14.15;;
1106;SDS011;540;49.448;8.612;2024-03-08T11:33:35;19.80;;;14.65;;
1106;SDS011;540;49.448;8.612;2024-03-08T11:36:05;15.52;;;12.63;;
1106;SDS011;540;49.448;8.612;2024-03-08T11:38:39;18.92;;;13.13;;
1106;SDS011;540;49.448;8.612;2024-03-08T11:41:09;22.02;;;14.13;;
1106;SDS011;540;49.448;8.612;2024-03-08T11:43:44;19.73;;;14.13;;
1106;SDS011;540;49.448;8.612;2024-03-08T11:46:12;17.52;;;13.63;;
1106;SDS011;540;49.448;8.612;2024-03-08T11:48:42;18.42;;;13.00;;
1106;SDS011;540;49.448;8.612;2024-03-08T11:51:11;18.35;;;13.85;;
1106;SDS011;540;49.448;8.612;2024-03-08T11:53:40;20.27;;;15.63;;
1106;SDS011;540;49.448;8.612;2024-03-08T11:56:14;20.27;;;14.30;;
1106;SDS011;540;49.448;8.612;2024-03-08T11:58:51;18.08;;;13.63;;
1106;SDS011;540;49.448;8.612;2024-03-08T12:01:23;20.48;;;14.52;;
1106;SDS011;540;49.448;8.612;2024-03-08T12:03:52;16.20;;;12.85;;
1106;SDS011;540;49.448;8.612;2024-03-08T12:06:20;17.55;;;13.98;;
1106;SDS011;540;49.448;8.612;2024-03-08T12:08:48;17.08;;;13.20;;
1106;SDS011;540;49.448;8.612;2024-03-08T12:11:18;19.60;;;14.68;;
1106;SDS011;540;49.448;8.612;2024-03-08T12:13:49;19.27;;;13.95;;
1106;SDS011;540;49.448;8.612;2024-03-08T12:16:18;18.88;;;13.82;;
1106;SDS011;540;49.448;8.612;2024-03-08T12:18:50;18.40;;;13.93;;
1106;SDS011;540;49.448;8.612;2024-03-08T12:21:20;17.70;;;13.30;;
1106;SDS011;540;49.448;8.612;2024-03-08T12:24:01;23.52;;;16.50;;
1106;SDS011;540;49.448;8.612;2024-03-08T12:26:32;17.27;;;13.68;;
1106;SDS011;540;49.448;8.612;2024-03-08T12:29:19;18.63;;;13.73;;
1106;SDS011;540;49.448;8.612;2024-03-08T12:31:50;18.80;;;13.85;;
1106;SDS011;540;49.448;8.612;2024-03-08T12:34:20;17.95;;;13.63;;
1106;SDS011;540;49.448;8.612;2024-03-08T12:36:49;16.88;;;12.90;;
1106;SDS011;540;49.448;8.612;2024-03-08T12:39:21;21.20;;;16.95;;
1106;SDS011;540;49.448;8.612;2024-03-08T12:41:55;18.55;;;14.10;;
1106;SDS011;540;49.448;8.612;2024-03-08T12:44:24;18.10;;;13.75;;
1106;SDS011;540;49.448;8.612;2024-03-08T12:46:52;18.15;;;13.57;;
1106;SDS011;540;49.448;8.612;2024-03-08T12:49:21;17.73;;;13.68;;
1106;SDS011;540;49.448;8.612;2024-03-08T12:51:49;17.63;;;13.48;;
1106;SDS011;540;49.448;8.612;2024-03-08T12:54:18;17.08;;;13.77;;
1106;SDS011;540;49.448;8.612;2024-03-08T12:56:49;19.27;;;13.93;;
1106;SDS011;540;49.448;8.612;2024-03-08T12:59:21;17.58;;;13.10;;
1106;SDS011;540;49.448;8.612;2024-03-08T13:01:50;18.73;;;14.10;;
1106;SDS011;540;49.448;8.612;2024-03-08T13:04:20;19.35;;;15.13;;
1106;SDS011;540;49.448;8.612;2024-03-08T13:06:48;18.60;;;12.75;;
1106;SDS011;540;49.448;8.612;2024-03-08T13:09:20;18.90;;;14.18;;
1106;SDS011;540;49.448;8.612;2024-03-08T13:11:49;18.00;;;13.10;;
1106;SDS011;540;49.448;8.612;2024-03-08T13:14:18;24.55;;;17.08;;
1106;SDS011;540;49.448;8.612;2024-03-08T13:16:47;21.48;;;14.73;;
1106;SDS011;540;49.448;8.612;2024-03-08T13:19:15;24.20;;;16.65;;
1106;SDS011;540;49.448;8.612;2024-03-08T13:21:43;23.45;;;16.33;;
1106;SDS011;540;49.448;8.612;2024-03-08T13:24:15;24.50;;;17.08;;
1106;SDS011;540;49.448;8.612;2024-03-08T13:26:45;19.70;;;13.88;;
1106;SDS011;540;49.448;8.612;2024-03-08T13:29:13;19.05;;;14.02;;
1106;SDS011;540;49.448;8.612;2024-03-08T13:31:41;21.98;;;15.95;;
1106;SDS011;540;49.448;8.612;2024-03-08T13:34:10;23.90;;;15.73;;
1106;SDS011;540;49.448;8.612;2024-03-08T13:36:38;22.00;;;14.75;;
1106;SDS011;540;49.448;8.612;2024-03-08T13:39:10;22.80;;;14.80;;
1106;SDS011;540;49.448;8.612;2024-03-08T13:41:41;22.45;;;16.05;;
1106;SDS011;540;49.448;8.612;2024-03-08T13:44:10;17.83;;;14.45;;
1106;SDS011;540;49.448;8.612;2024-03-08T13:46:38;20.25;;;14.38;;
1106;SDS011;540;49.448;8.612;2024-03-08T13:49:06;20.42;;;13.95;;
1106;SDS011;540;49.448;8.612;2024-03-08T13:51:37;18.65;;;14.10;;
1106;SDS011;540;49.448;8.612;2024-03-08T13:54:05;18.63;;;13.98;;
1106;SDS011;540;49.448;8.612;2024-03-08T13:56:33;22.95;;;14.55;;
1106;SDS011;540;49.448;8.612;2024-03-08T13:59:01;19.45;;;13.73;;
1106;SDS011;540;49.448;8.612;2024-03-08T14:01:28;19.63;;;14.32;;
1106;SDS011;540;49.448;8.612;2024-03-08T14:03:57;16.98;;;13.00;;
1106;SDS011;540;49.448;8.612;2024-03-08T14:06:25;18.00;;;13.18;;
1106;SDS011;540;49.448;8.612;2024-03-08T14:08:55;16.05;;;12.25;;
1106;SDS011;540;49.448;8.612;2024-03-08T14:11:23;18.77;;;13.93;;
1106;SDS011;540;49.448;8.612;2024-03-08T14:13:52;19.63;;;13.57;;
1106;SDS011;540;49.448;8.612;2024-03-08T14:16:20;18.10;;;12.70;;
1106;SDS011;540;49.448;8.612;2024-03-08T14:18:48;19.13;;;12.95;;
1106;SDS011;540;49.448;8.612;2024-03-08T14:21:16;17.40;;;12.20;;
1106;SDS011;540;49.448;8.612;2024-03-08T14:23:44;19.75;;;13.68;;
1106;SDS011;540;49.448;8.612;2024-03-08T14:26:16;17.80;;;13.52;;
1106;SDS011;540;49.448;8.612;2024-03-08T14:28:43;17.35;;;12.95;;
1106;SDS011;540;49.448;8.612;2024-03-08T14:31:12;18.20;;;13.20;;
1106;SDS011;540;49.448;8.612;2024-03-08T14:33:44;20.88;;;14.30;;
1106;SDS011;540;49.448;8.612;2024-03-08T14:36:15;19.08;;;13.50;;
1106;SDS011;540;49.448;8.612;2024-03-08T14:38:43;21.48;;;13.45;;
1106;SDS011;540;49.448;8.612;2024-03-08T14:41:13;19.60;;;13.55;;
1106;SDS011;540;49.448;8.612;2024-03-08T14:43:43;22.70;;;15.40;;
1106;SDS011;540;49.448;8.612;2024-03-08T14:46:11;17.70;;;12.82;;
1106;SDS011;540;49.448;8.612;2024-03-08T14:48:43;20.45;;;12.60;;
1106;SDS011;540;49.448;8.612;2024-03-08T14:51:16;19.90;;;14.30;;
1106;SDS011;540;49.448;8.612;2024-03-08T14:53:46;17.50;;;12.80;;
1106;SDS011;540;49.448;8.612;2024-03-08T14:56:14;18.50;;;13.32;;
1106;SDS011;540;49.448;8.612;2024-03-08T14:58:44;20.08;;;13.65;;
1106;SDS011;540;49.448;8.612;2024-03-08T15:01:15;19.65;;;13.80;;
1106;SDS011;540;49.448;8.612;2024-03-08T15:03:48;17.35;;;12.77;;
1106;SDS011;540;49.448;8.612;2024-03-08T15:06:16;17.95;;;13.05;;
1106;SDS011;540;49.448;8.612;2024-03-08T15:08:47;19.77;;;13.80;;
1106;SDS011;540;49.448;8.612;2024-03-08T15:11:15;20.05;;;13.75;;
1106;SDS011;540;49.448;8.612;2024-03-08T15:13:49;20.10;;;14.75;;